Green Sulphur Springs, West Virginia
Current Conditions -  °F | °C
As of 6:55 PM on Thursday 27 Nov 2014 (Local Time) from KBKW Reporting Station
Light Snow Light Snow  
Wind Chill: 16°   Ceiling: 2700
Heat Index: 26°   Visibility: 3mi
Dew Point: 21°   Wind: 12mph
Humidity: 81%   Direction: 290°WNW
Pressure: 30.21"   Gusts: NA
Location:  37.81°N, 80.82°W
Report Text: KBKW 272355Z AUTO 29010KT 3SM -SN FEW010 BKN027 OVC042 M03/M06 A3021 RMK AO2 P0000 T10331061
Loading
Personal Weather Stations






























Interactive Weather Map New forecast layout! Learn more

10-Day Weather Forecast

Advertisements
Track Severe Weather on mobile